Time;durP1;ratioP1;P1;durP2;ratioP2;P2;SDS_P1;SDS_P2;PMS_P1;PMS_P2;Temp;Humidity;BMP_temperature;BMP_pressure;BME280_temperature;BME280_humidity;BME280_pressure;Samples;Min_cycle;Max_cycle;Signal;HPM_P1;HPM_P2
2021/01/15 00:00:31;;;;;;;37.45;15.95;;;;;;;-5.82;86.63;98344.47;3503145;28;20054;-50
2021/01/15 00:02:13;;;;;;;32.53;13.68;;;;;;;-5.83;86.53;98350.28;3503480;28;20161;-51
2021/01/15 00:03:54;;;;;;;34.70;14.88;;;;;;;-5.84;86.09;98361.19;3502794;28;20106;-50
2021/01/15 00:05:38;;;;;;;39.05;15.45;;;;;;;-5.88;85.92;98360.16;3507369;28;20458;-49
2021/01/15 00:07:19;;;;;;;37.67;14.73;;;;;;;-5.91;86.38;98359.97;3504330;28;20075;-49
2021/01/15 00:09:02;;;;;;;37.90;15.80;;;;;;;-5.93;86.11;98364.94;3501635;28;20044;-49
2021/01/15 00:10:44;;;;;;;38.90;15.63;;;;;;;-5.94;86.45;98368.22;3504089;28;20547;-50
2021/01/15 00:12:25;;;;;;;36.90;15.05;;;;;;;-5.92;86.87;98370.84;3504780;28;20047;-51
2021/01/15 00:14:07;;;;;;;34.35;13.35;;;;;;;-5.91;87.11;98367.53;3503167;28;20044;-50
2021/01/15 00:15:48;;;;;;;33.10;15.07;;;;;;;-5.89;87.32;98368.50;3502851;28;20547;-49
2021/01/15 00:17:33;;;;;;;34.28;13.98;;;;;;;-5.90;86.62;98367.63;3503856;28;20047;-51
2021/01/15 00:19:15;;;;;;;28.40;12.93;;;;;;;-5.91;86.18;98365.03;3503041;28;20056;-52
2021/01/15 00:20:56;;;;;;;32.15;13.52;;;;;;;-5.95;86.22;98361.47;3504700;28;20504;-51
2021/01/15 00:22:41;;;;;;;29.35;13.00;;;;;;;-5.95;86.18;98363.09;3504000;28;20052;-47
2021/01/15 00:24:24;;;;;;;29.95;12.25;;;;;;;-5.97;86.73;98350.41;3503673;28;20512;-48
2021/01/15 00:26:05;;;;;;;32.22;13.32;;;;;;;-5.96;86.88;98359.69;3500201;28;20063;-48
2021/01/15 00:27:46;;;;;;;31.33;12.77;;;;;;;-5.96;86.63;98353.78;3500646;28;20547;-48
2021/01/15 00:29:28;;;;;;;36.15;13.75;;;;;;;-5.95;86.43;98356.41;3510745;28;20056;-49
2021/01/15 00:31:09;;;;;;;32.55;12.80;;;;;;;-5.95;86.42;98356.41;3505148;28;20048;-48
2021/01/15 00:32:51;;;;;;;30.45;11.55;;;;;;;-5.94;86.57;98362.31;3509666;28;20497;-50
2021/01/15 00:34:32;;;;;;;27.67;12.57;;;;;;;-5.93;86.70;98359.03;3510525;28;20436;-47
2021/01/15 00:36:14;;;;;;;29.48;13.57;;;;;;;-5.94;86.63;98357.28;3507245;28;20253;-48
2021/01/15 00:37:55;;;;;;;30.15;12.50;;;;;;;-5.93;86.31;98364.94;3509651;28;20052;-48
2021/01/15 00:39:37;;;;;;;25.83;12.68;;;;;;;-5.94;86.20;98365.69;3509307;28;20093;-51
2021/01/15 00:41:18;;;;;;;29.05;12.23;;;;;;;-5.94;86.32;98365.69;3508337;28;20040;-47
2021/01/15 00:43:00;;;;;;;28.50;12.35;;;;;;;-5.93;86.10;98366.59;3509822;28;20052;-48
2021/01/15 00:44:45;;;;;;;30.42;13.57;;;;;;;-5.95;86.06;98360.56;3507572;28;20317;-50
2021/01/15 00:46:32;;;;;;;28.60;13.00;;;;;;;-5.96;86.06;98363.88;3507018;28;20044;-48
2021/01/15 00:48:14;;;;;;;31.85;13.32;;;;;;;-6.00;85.97;98365.38;3510743;28;20052;-48
2021/01/15 00:49:56;;;;;;;31.20;13.70;;;;;;;-6.02;85.49;98371.09;3508140;28;20055;-49
2021/01/15 00:51:38;;;;;;;27.85;11.98;;;;;;;-6.06;85.90;98370.06;3508341;28;20052;-48
2021/01/15 00:53:19;;;;;;;32.25;13.23;;;;;;;-6.08;85.84;98371.63;3496558;28;20067;-47
2021/01/15 00:55:02;;;;;;;34.35;13.77;;;;;;;-6.11;85.59;98364.75;3503043;28;20469;-49
2021/01/15 00:56:44;;;;;;;31.08;13.20;;;;;;;-6.14;85.82;98367.09;3509957;28;20047;-47
2021/01/15 00:58:26;;;;;;;34.03;13.27;;;;;;;-6.15;86.08;98370.38;3508907;28;20101;-47
2021/01/15 01:00:09;;;;;;;28.58;12.18;;;;;;;-6.16;85.96;98368.66;3506795;28;20040;-51
2021/01/15 01:01:50;;;;;;;34.40;13.15;;;;;;;-6.16;86.34;98365.28;3510525;28;20051;-48
2021/01/15 01:03:32;;;;;;;27.27;13.27;;;;;;;-6.15;86.72;98372.06;3506969;28;20044;-51
2021/01/15 01:05:14;;;;;;;35.05;12.80;;;;;;;-6.16;86.50;98372.84;3508031;28;20057;-49
2021/01/15 01:06:55;;;;;;;31.50;12.98;;;;;;;-6.15;86.21;98367.88;3510305;28;20048;-47
2021/01/15 01:08:39;;;;;;;30.08;12.63;;;;;;;-6.15;86.48;98367.88;3506294;28;20416;-48
2021/01/15 01:10:21;;;;;;;30.17;12.52;;;;;;;-6.14;86.54;98374.66;3508114;28;20182;-49
2021/01/15 01:12:04;;;;;;;31.88;13.38;;;;;;;-6.12;86.38;98375.63;3509112;28;20631;-48
2021/01/15 01:13:46;;;;;;;28.60;12.15;;;;;;;-6.11;85.96;98379.00;3506624;28;20047;-48
2021/01/15 01:15:28;;;;;;;31.67;12.95;;;;;;;-6.12;86.19;98375.63;3509728;28;20048;-49
2021/01/15 01:17:09;;;;;;;29.25;12.15;;;;;;;-6.12;85.88;98375.63;3508609;28;20051;-48
2021/01/15 01:18:52;;;;;;;28.67;12.88;;;;;;;-6.13;85.98;98376.41;3506696;28;20456;-48
2021/01/15 01:20:33;;;;;;;28.88;12.32;;;;;;;-6.12;85.89;98382.34;3509970;28;20409;-48
2021/01/15 01:22:15;;;;;;;24.63;10.63;;;;;;;-6.13;85.92;98373.00;3509437;28;20058;-48
2021/01/15 01:23:56;;;;;;;29.60;11.82;;;;;;;-6.15;84.98;98377.97;3506648;28;20048;-48
2021/01/15 01:25:38;;;;;;;31.55;11.90;;;;;;;-6.18;84.72;98379.44;3510170;28;20052;-49
2021/01/15 01:27:20;;;;;;;24.85;12.10;;;;;;;-6.21;84.67;98385.19;3507556;28;20044;-48
2021/01/15 01:29:02;;;;;;;24.08;11.10;;;;;;;-6.25;84.71;98381.63;3507703;28;20425;-50
2021/01/15 01:30:43;;;;;;;24.05;10.93;;;;;;;-6.25;85.23;98379.09;3496479;28;20064;-48
2021/01/15 01:32:25;;;;;;;27.85;12.25;;;;;;;-6.26;85.53;98387.44;3506532;28;20055;-50
2021/01/15 01:34:06;;;;;;;29.10;12.15;;;;;;;-6.28;85.29;98381.44;3509430;28;20055;-51
2021/01/15 01:35:48;;;;;;;28.63;13.15;;;;;;;-6.28;85.48;98390.66;3508023;28;20052;-48
2021/01/15 01:37:29;;;;;;;28.85;11.68;;;;;;;-6.30;85.15;98385.53;3506801;28;20048;-48
2021/01/15 01:39:11;;;;;;;26.23;11.50;;;;;;;-6.31;85.55;98383.78;3510139;28;20060;-50
2021/01/15 01:40:53;;;;;;;24.65;11.73;;;;;;;-6.32;85.47;98379.53;3506777;28;20082;-49
2021/01/15 01:42:35;;;;;;;26.73;11.45;;;;;;;-6.31;85.24;98390.47;3509099;28;20047;-48
2021/01/15 01:44:16;;;;;;;23.50;11.55;;;;;;;-6.34;84.43;98397.84;3510131;28;20052;-49
2021/01/15 01:46:01;;;;;;;24.75;11.43;;;;;;;-6.38;84.57;98393.41;3506793;28;20052;-49
2021/01/15 01:47:43;;;;;;;28.58;11.43;;;;;;;-6.43;84.10;98396.56;3508724;28;20143;-51
2021/01/15 01:49:26;;;;;;;26.13;11.65;;;;;;;-6.46;84.32;98393.84;3509396;28;20051;-49
2021/01/15 01:51:08;;;;;;;23.67;11.00;;;;;;;-6.49;84.27;98403.75;3507568;28;20044;-49
2021/01/15 01:52:49;;;;;;;26.17;10.90;;;;;;;-6.52;84.32;98401.03;3508159;28;20493;-50
2021/01/15 01:54:34;;;;;;;23.42;10.25;;;;;;;-6.55;84.62;98389.88;3509546;28;20048;-48
2021/01/15 01:56:16;;;;;;;24.42;11.15;;;;;;;-6.55;84.96;98398.34;3506266;28;20566;-49
2021/01/15 01:57:58;;;;;;;26.63;11.88;;;;;;;-6.55;85.23;98393.31;3509179;28;20093;-51
2021/01/15 01:59:39;;;;;;;31.83;10.55;;;;;;;-6.54;85.42;98396.69;3508400;28;20048;-49
2021/01/15 02:01:21;;;;;;;23.08;10.30;;;;;;;-6.53;85.49;98400.97;3506175;28;20551;-49
2021/01/15 02:03:03;;;;;;;26.75;11.88;;;;;;;-6.54;85.36;98399.22;3509791;28;20055;-48
2021/01/15 02:04:44;;;;;;;28.15;12.40;;;;;;;-6.54;85.58;98394.16;3507581;28;20048;-48
2021/01/15 02:06:27;;;;;;;29.08;13.27;;;;;;;-6.54;86.09;98399.22;3508961;28;20043;-47
2021/01/15 02:08:09;;;;;;;31.27;11.60;;;;;;;-6.54;86.25;98400.06;3509274;28;20117;-48
2021/01/15 02:10:00;;;;;;;23.83;11.10;;;;;;;-6.54;85.99;98405.13;3506100;28;20555;-48
2021/01/15 02:11:51;;;;;;;27.52;11.43;;;;;;;-6.56;85.84;98411.72;3507412;28;20052;-47
2021/01/15 02:13:40;;;;;;;26.58;11.48;;;;;;;-6.61;85.64;98403.00;3509697;28;20048;-48
2021/01/15 02:15:28;;;;;;;28.42;10.80;;;;;;;-6.64;85.28;98403.72;3507443;28;20509;-50
2021/01/15 02:17:16;;;;;;;28.40;11.95;;;;;;;-6.69;85.21;98402.56;3506654;28;20142;-48
2021/01/15 02:19:10;;;;;;;27.23;11.93;;;;;;;-6.78;84.60;98404.53;3495608;28;20528;-49
2021/01/15 02:21:26;;;;;;;24.45;11.38;;;;;;;-6.85;85.11;98413.34;3506269;28;20059;-50
2021/01/15 02:23:13;;;;;;;24.10;10.73;;;;;;;-6.90;85.21;98413.88;3508781;28;20048;-50
2021/01/15 02:25:34;;;;;;;30.60;11.80;;;;;;;-6.93;85.51;98414.53;3511519;28;20083;-50
2021/01/15 02:27:28;;;;;;;27.40;11.65;;;;;;;-6.94;85.56;98416.94;3498368;28;20098;-48
2021/01/15 02:29:15;;;;;;;24.80;10.80;;;;;;;-6.94;85.82;98422.00;3509454;28;20052;-48
2021/01/15 02:31:16;;;;;;;28.73;10.57;;;;;;;-6.92;86.06;98417.91;3508380;28;20044;-49
2021/01/15 02:33:07;;;;;;;21.83;10.23;;;;;;;-6.90;86.34;98419.75;3511497;28;20063;-48
2021/01/15 02:35:16;;;;;;;33.10;11.25;;;;;;;-6.87;86.40;98421.59;3509899;28;20449;-49
2021/01/15 02:37:05;;;;;;;26.52;9.80;;;;;;;-6.88;86.01;98422.38;3497666;28;20109;-48
2021/01/15 02:38:53;;;;;;;28.50;10.27;;;;;;;-6.91;85.48;98419.66;3509078;28;20056;-47
2021/01/15 02:40:39;;;;;;;23.05;10.38;;;;;;;-6.93;86.20;98424.63;3498032;28;20105;-47
2021/01/15 02:42:25;;;;;;;30.30;10.20;;;;;;;-6.97;85.80;98422.69;3507504;28;20052;-51
2021/01/15 02:44:11;;;;;;;27.27;10.50;;;;;;;-6.99;85.65;98429.28;3508238;28;20082;-51
2021/01/15 02:45:56;;;;;;;28.17;10.07;;;;;;;-7.03;85.58;98432.38;3511775;28;20056;-47
2021/01/15 02:47:46;;;;;;;30.00;11.73;;;;;;;-7.09;85.28;98429.50;3508338;28;20052;-48
2021/01/15 02:49:30;;;;;;;26.60;10.52;;;;;;;-7.09;85.57;98437.91;3510660;28;20044;-48
2021/01/15 02:51:13;;;;;;;23.50;10.20;;;;;;;-7.09;86.04;98432.00;3511728;28;20105;-48
2021/01/15 02:52:56;;;;;;;29.85;11.65;;;;;;;-7.12;85.74;98432.66;3508110;28;20052;-49
2021/01/15 02:54:37;;;;;;;25.95;11.05;;;;;;;-7.11;85.69;98438.59;3509544;28;20056;-47
2021/01/15 02:56:19;;;;;;;25.17;10.50;;;;;;;-7.11;85.88;98433.56;3498800;28;20063;-48
2021/01/15 02:58:02;;;;;;;24.90;10.77;;;;;;;-7.12;85.71;98434.31;3503446;28;20528;-48
2021/01/15 02:59:43;;;;;;;23.42;10.40;;;;;;;-7.12;85.56;98436.84;3510230;28;20463;-48
2021/01/15 03:01:33;;;;;;;22.30;9.50;;;;;;;-7.12;85.79;98437.72;3500926;28;20048;-49
2021/01/15 03:03:21;;;;;;;24.90;10.27;;;;;;;-7.12;85.38;98440.22;3504703;28;20539;-48
2021/01/15 03:05:10;;;;;;;23.20;9.13;;;;;;;-7.12;85.50;98442.75;3509577;28;20048;-50
2021/01/15 03:06:57;;;;;;;27.83;11.02;;;;;;;-7.13;84.98;98443.53;3510419;28;20052;-48
2021/01/15 03:08:40;;;;;;;26.52;10.90;;;;;;;-7.12;85.23;98440.22;3504207;28;20502;-48
2021/01/15 03:10:24;;;;;;;24.95;10.32;;;;;;;-7.11;85.32;98441.13;3498965;28;20052;-48
2021/01/15 03:12:07;;;;;;;19.63;9.65;;;;;;;-7.13;84.95;98442.69;3499221;28;20465;-47
2021/01/15 03:13:51;;;;;;;24.08;9.10;;;;;;;-7.15;85.03;98442.59;3502514;28;20040;-47
2021/01/15 03:15:36;;;;;;;18.23;8.15;;;;;;;-7.19;84.58;98443.13;3511387;28;20097;-48
2021/01/15 03:17:23;;;;;;;22.67;9.57;;;;;;;-7.21;84.73;98445.56;3500770;28;20059;-47
2021/01/15 03:19:05;;;;;;;20.83;8.60;;;;;;;-7.24;84.27;98447.00;3500673;28;20097;-51
2021/01/15 03:20:48;;;;;;;16.98;8.00;;;;;;;-7.27;84.53;98444.31;3511525;28;20048;-47
2021/01/15 03:22:32;;;;;;;20.52;8.43;;;;;;;-7.28;84.11;98450.13;3507876;28;20566;-48
2021/01/15 03:24:14;;;;;;;19.00;8.48;;;;;;;-7.30;84.63;98444.13;3509075;28;20044;-48
2021/01/15 03:25:56;;;;;;;19.45;9.05;;;;;;;-7.29;85.02;98456.81;3511347;28;20280;-48
2021/01/15 03:27:43;;;;;;;24.60;9.10;;;;;;;-7.29;85.00;98451.78;3509328;28;20047;-51
2021/01/15 03:29:25;;;;;;;17.58;7.85;;;;;;;-7.29;84.79;98456.81;3510589;28;20056;-48
2021/01/15 03:31:06;;;;;;;20.45;8.95;;;;;;;-7.29;85.09;98456.81;3508435;28;20121;-47
2021/01/15 03:32:51;;;;;;;19.30;8.80;;;;;;;-7.31;85.14;98460.91;3510326;28;20055;-47
2021/01/15 03:34:33;;;;;;;21.45;8.88;;;;;;;-7.32;85.45;98451.59;3509267;28;20048;-48
2021/01/15 03:36:16;;;;;;;23.20;10.27;;;;;;;-7.33;85.06;98451.47;3510337;28;20048;-44
2021/01/15 03:38:00;;;;;;;21.30;8.18;;;;;;;-7.35;84.97;98453.91;3507530;28;20546;-43
2021/01/15 03:39:42;;;;;;;22.90;10.43;;;;;;;-7.41;84.76;98463.59;3510108;28;20067;-44
2021/01/15 03:41:23;;;;;;;26.40;10.48;;;;;;;-7.46;84.85;98458.28;3509458;28;20051;-48
2021/01/15 03:43:11;;;;;;;23.10;9.32;;;;;;;-7.54;84.34;98463.59;3507753;28;20101;-49
2021/01/15 03:44:53;;;;;;;25.85;9.88;;;;;;;-7.62;84.37;98470.66;3497225;28;20441;-50
2021/01/15 03:46:34;;;;;;;22.63;8.95;;;;;;;-7.68;84.36;98462.69;3507077;28;20097;-48
2021/01/15 03:48:17;;;;;;;18.52;8.75;;;;;;;-7.74;84.67;98468.22;3509652;28;20048;-51
2021/01/15 03:49:58;;;;;;;16.63;7.75;;;;;;;-7.77;85.10;98466.38;3511127;28;20497;-47
2021/01/15 03:51:40;;;;;;;18.02;7.82;;;;;;;-7.78;85.38;98473.81;3501181;28;20068;-47
2021/01/15 03:53:22;;;;;;;22.25;8.48;;;;;;;-7.81;85.00;98473.63;3498539;28;20131;-48
2021/01/15 03:55:08;;;;;;;17.73;7.97;;;;;;;-7.83;85.53;98471.00;3497206;28;20052;-48
2021/01/15 03:56:51;;;;;;;20.02;9.32;;;;;;;-7.81;85.88;98474.47;3500634;28;20063;-49
2021/01/15 03:58:32;;;;;;;19.10;7.63;;;;;;;-7.81;85.81;98478.66;3498932;28;20053;-51
2021/01/15 04:00:14;;;;;;;20.95;8.00;;;;;;;-7.80;85.63;98471.22;3509823;28;20486;-48
2021/01/15 04:01:56;;;;;;;22.30;8.40;;;;;;;-7.80;85.65;98481.28;3508743;28;20039;-50
2021/01/15 04:03:38;;;;;;;25.20;8.82;;;;;;;-7.78;85.73;98482.25;3510387;28;20146;-50
2021/01/15 04:05:19;;;;;;;20.05;8.55;;;;;;;-7.79;85.36;98477.09;3508463;28;20421;-52
2021/01/15 04:07:02;;;;;;;15.85;7.38;;;;;;;-7.79;85.77;98480.53;3507120;28;20048;-50
2021/01/15 04:08:43;;;;;;;19.05;8.45;;;;;;;-7.77;86.06;98486.53;3511001;28;20056;-51
2021/01/15 04:10:25;;;;;;;22.50;8.70;;;;;;;-7.75;86.01;98480.69;3509949;28;20465;-48
2021/01/15 04:12:06;;;;;;;16.83;7.03;;;;;;;-7.80;84.92;98483.78;3507706;28;20044;-49
2021/01/15 04:13:48;;;;;;;17.55;8.93;;;;;;;-7.82;85.31;98485.34;3510880;28;20062;-49
2021/01/15 04:15:29;;;;;;;21.75;8.90;;;;;;;-7.82;85.38;98482.81;3509114;28;20051;-43
2021/01/15 04:17:11;;;;;;;22.45;9.00;;;;;;;-7.82;85.27;98485.34;3508718;28;20048;-43
2021/01/15 04:18:53;;;;;;;19.80;7.93;;;;;;;-7.85;85.06;98484.28;3511101;28;20131;-44
2021/01/15 04:20:34;;;;;;;21.02;8.30;;;;;;;-7.87;85.26;98490.84;3508862;28;20044;-43
2021/01/15 04:22:16;;;;;;;19.27;9.45;;;;;;;-7.90;84.83;98491.50;3509328;28;20126;-43
2021/01/15 04:23:58;;;;;;;22.02;9.85;;;;;;;-7.91;85.06;98496.44;3510273;28;20055;-43
2021/01/15 04:25:40;;;;;;;18.42;7.85;;;;;;;-7.93;84.93;98490.44;3503013;28;20135;-45
2021/01/15 04:27:21;;;;;;;20.33;7.95;;;;;;;-7.98;84.54;98491.00;3497396;28;20083;-44
2021/01/15 04:29:03;;;;;;;17.38;6.88;;;;;;;-8.05;84.14;98487.97;3510317;28;20373;-43
2021/01/15 04:30:47;;;;;;;19.08;8.02;;;;;;;-8.09;84.91;98491.03;3504979;28;20470;-43
2021/01/15 04:32:29;;;;;;;19.48;7.97;;;;;;;-8.15;84.17;98483.97;3510052;28;20048;-44
2021/01/15 04:34:10;;;;;;;17.65;7.40;;;;;;;-8.20;83.81;98486.16;3509218;28;20052;-44
2021/01/15 04:35:52;;;;;;;18.90;7.03;;;;;;;-8.25;83.56;98494.16;3506678;28;20056;-44
2021/01/15 04:37:35;;;;;;;15.10;7.18;;;;;;;-8.28;84.38;98494.84;3510810;28;20048;-45
2021/01/15 04:39:19;;;;;;;17.13;7.72;;;;;;;-8.27;84.31;98501.59;3510103;28;20117;-44
2021/01/15 04:41:00;;;;;;;22.30;8.15;;;;;;;-8.30;83.71;98500.53;3509642;28;20047;-44
2021/01/15 04:42:43;;;;;;;17.83;8.05;;;;;;;-8.33;83.77;98511.25;3510010;28;20513;-44
2021/01/15 04:44:25;;;;;;;18.70;7.68;;;;;;;-8.37;83.65;98512.69;3508521;28;20071;-44
2021/01/15 04:46:07;;;;;;;22.33;7.97;;;;;;;-8.41;83.96;98520.78;3505979;28;20057;-44
2021/01/15 04:47:54;;;;;;;18.83;7.15;;;;;;;-8.39;84.36;98523.41;3496889;28;20044;-48
2021/01/15 04:49:36;;;;;;;17.88;8.13;;;;;;;-8.38;84.81;98522.66;3506495;28;20044;-50
2021/01/15 04:51:19;;;;;;;21.75;8.18;;;;;;;-8.35;84.73;98528.75;3509764;28;20040;-50
2021/01/15 04:53:06;;;;;;;17.95;8.18;;;;;;;-8.33;84.42;98528.88;3510453;28;20491;-50
2021/01/15 04:54:53;;;;;;;21.63;8.95;;;;;;;-8.31;84.38;98527.31;3499098;28;20524;-50
2021/01/15 04:56:39;;;;;;;20.55;8.75;;;;;;;-8.29;84.38;98532.47;3500932;28;20421;-48
2021/01/15 04:58:21;;;;;;;24.92;9.02;;;;;;;-8.28;84.32;98530.06;3510471;28;20417;-47
2021/01/15 05:00:05;;;;;;;21.52;8.10;;;;;;;-8.27;84.39;98530.94;3508411;28;20055;-51
2021/01/15 05:01:48;;;;;;;19.92;7.90;;;;;;;-8.25;84.17;98541.97;3509534;28;20059;-50
2021/01/15 05:03:32;;;;;;;20.13;8.10;;;;;;;-8.27;83.75;98534.31;3510391;28;20079;-47
2021/01/15 05:05:20;;;;;;;18.88;8.00;;;;;;;-8.29;82.83;98534.97;3508469;28;20051;-49
2021/01/15 05:07:04;;;;;;;16.42;7.03;;;;;;;-8.33;82.94;98533.91;3509636;28;20051;-48
2021/01/15 05:08:53;;;;;;;20.38;7.15;;;;;;;-8.33;83.10;98541.44;3508541;28;20055;-50
2021/01/15 05:10:37;;;;;;;15.90;7.63;;;;;;;-8.35;82.84;98541.34;3497398;28;20052;-48
2021/01/15 05:12:20;;;;;;;19.55;7.90;;;;;;;-8.36;82.67;98539.56;3504081;28;20051;-50
2021/01/15 05:14:01;;;;;;;18.67;7.43;;;;;;;-8.36;83.19;98543.75;3509515;28;20056;-48
2021/01/15 05:15:44;;;;;;;18.67;7.95;;;;;;;-8.36;83.21;98534.53;3508768;28;20087;-48
2021/01/15 05:17:26;;;;;;;19.67;7.20;;;;;;;-8.35;83.23;98540.47;3507078;28;20056;-51
2021/01/15 05:19:09;;;;;;;19.33;7.18;;;;;;;-8.36;82.51;98542.09;3508555;28;20074;-48
2021/01/15 05:20:51;;;;;;;17.75;6.85;;;;;;;-8.38;82.02;98550.31;3497709;28;20163;-48
2021/01/15 05:22:32;;;;;;;18.67;7.38;;;;;;;-8.40;82.00;98550.19;3502403;28;20055;-48
2021/01/15 05:24:16;;;;;;;21.73;8.70;;;;;;;-8.43;81.80;98555.00;3509493;28;20568;-47
2021/01/15 05:25:58;;;;;;;;;;;;;;;-8.44;82.49;98555.78;3507694;28;20452;-48
2021/01/15 05:27:43;;;;;;;16.40;6.90;;;;;;;-8.46;82.12;98557.31;3506505;28;19924;-49
2021/01/15 05:29:24;;;;;;;17.38;7.57;;;;;;;-8.50;81.49;98560.38;3510137;28;20397;-47
2021/01/15 05:31:05;;;;;;;20.30;8.25;;;;;;;-8.51;82.25;98563.69;3504957;28;20055;-48
2021/01/15 05:32:48;;;;;;;21.02;8.68;;;;;;;-8.55;81.75;98561.69;3506305;28;20593;-49
2021/01/15 05:34:30;;;;;;;18.88;7.85;;;;;;;-8.57;82.46;98569.13;3503081;28;20568;-48
2021/01/15 05:36:31;;;;;;;23.42;9.68;;;;;;;-8.58;82.65;98569.91;3502726;28;20055;-47
2021/01/15 05:38:15;;;;;;;25.92;9.20;;;;;;;-8.56;83.25;98580.06;3503535;28;20047;-47
2021/01/15 05:39:58;;;;;;;23.42;9.70;;;;;;;-8.54;83.83;98581.06;3503387;28;20477;-48
2021/01/15 05:41:41;;;;;;;23.65;9.80;;;;;;;-8.55;83.18;98576.78;3503547;28;20044;-47
2021/01/15 05:43:24;;;;;;;20.23;8.55;;;;;;;-8.52;83.54;98588.72;3501603;28;20048;-49
2021/01/15 05:45:13;;;;;;;19.65;8.38;;;;;;;-8.52;83.38;98583.69;3503446;28;20448;-48
2021/01/15 05:46:55;;;;;;;19.77;8.65;;;;;;;-8.55;83.51;98585.22;3504204;28;20044;-48
2021/01/15 05:48:44;;;;;;;19.88;8.07;;;;;;;-8.55;83.50;98582.72;3500914;28;20442;-49
2021/01/15 05:50:39;;;;;;;18.10;8.10;;;;;;;-8.53;83.96;98582.78;3501732;28;20049;-50
2021/01/15 05:52:20;;;;;;;19.13;7.63;;;;;;;-8.55;83.16;98577.69;3503542;28;20048;-47
2021/01/15 05:54:03;;;;;;;18.40;8.60;;;;;;;-8.57;83.13;98584.22;3502020;28;20044;-48
2021/01/15 05:55:55;;;;;;;23.67;10.60;;;;;;;-8.56;83.78;98591.00;3503342;28;20048;-51
2021/01/15 05:57:38;;;;;;;24.20;10.35;;;;;;;-8.58;83.33;98590.03;3506598;28;20040;-52
2021/01/15 05:59:20;;;;;;;21.30;9.13;;;;;;;-8.61;83.16;98599.84;3501262;28;20044;-49
2021/01/15 06:01:01;;;;;;;19.92;8.38;;;;;;;-8.68;82.45;98587.63;3503915;28;20496;-49
2021/01/15 06:02:45;;;;;;;22.13;9.15;;;;;;;-8.69;82.55;98585.00;3503048;28;20051;-48
2021/01/15 06:04:36;;;;;;;19.13;9.85;;;;;;;-8.73;82.44;98584.75;3502502;28;20044;-48
2021/01/15 06:06:18;;;;;;;19.45;8.27;;;;;;;-8.73;83.25;98592.31;3504415;28;20041;-50
2021/01/15 06:07:59;;;;;;;14.15;6.28;;;;;;;-8.71;83.40;98582.38;3504557;28;20044;-47
2021/01/15 06:09:43;;;;;;;21.33;7.70;;;;;;;-8.70;82.79;98588.25;3502325;28;20274;-49
2021/01/15 06:11:26;;;;;;;21.25;9.02;;;;;;;-8.71;82.57;98587.38;3504062;28;20056;-47
2021/01/15 06:13:08;;;;;;;20.80;8.90;;;;;;;-8.69;82.40;98600.94;3501585;28;20048;-49
2021/01/15 06:14:57;;;;;;;18.65;8.45;;;;;;;-8.68;82.86;98602.69;3503145;28;20398;-50
2021/01/15 06:16:41;;;;;;;20.52;7.90;;;;;;;-8.68;82.85;98602.69;3503370;28;20127;-49
2021/01/15 06:18:22;;;;;;;19.08;7.40;;;;;;;-8.66;82.51;98602.81;3503896;28;20048;-48
2021/01/15 06:20:05;;;;;;;15.55;6.85;;;;;;;-8.67;82.47;98606.97;3502765;28;20060;-50
2021/01/15 06:21:53;;;;;;;18.05;7.78;;;;;;;-8.65;83.39;98607.94;3502276;28;20054;-51
2021/01/15 06:23:41;;;;;;;19.80;8.55;;;;;;;-8.62;82.71;98605.63;3501525;28;20051;-48
2021/01/15 06:25:29;;;;;;;18.60;7.68;;;;;;;-8.60;83.00;98605.75;3501445;28;20094;-49
2021/01/15 06:27:15;;;;;;;21.23;8.82;;;;;;;-8.58;83.25;98605.09;3501552;28;20059;-47
2021/01/15 06:29:04;;;;;;;19.55;8.60;;;;;;;-8.55;82.99;98604.44;3501632;28;20055;-48
2021/01/15 06:30:58;;;;;;;21.25;10.00;;;;;;;-8.55;82.52;98617.91;3500918;28;20083;-48
2021/01/15 06:32:41;;;;;;;20.50;9.88;;;;;;;-8.55;82.80;98611.97;3503201;28;20421;-48
2021/01/15 06:34:25;;;;;;;20.83;8.82;;;;;;;-8.57;82.82;98616.03;3502160;28;20043;-48
2021/01/15 06:36:07;;;;;;;;;;;;;;;-8.55;83.45;98620.41;3503202;28;20044;-51
2021/01/15 06:37:58;;;;;;;21.40;8.40;;;;;;;-8.57;82.42;98626.09;3503666;28;19923;-50
2021/01/15 06:39:40;;;;;;;18.42;8.10;;;;;;;-8.59;82.71;98628.47;3503330;28;20048;-47
2021/01/15 06:41:21;;;;;;;20.67;9.23;;;;;;;-8.58;82.95;98631.88;3503009;28;20055;-48
2021/01/15 06:43:08;;;;;;;21.05;9.70;;;;;;;-8.60;83.04;98623.34;3503295;28;20504;-48
2021/01/15 06:44:54;;;;;;;22.23;8.35;;;;;;;-8.68;82.17;98622.81;3500299;28;20078;-49
2021/01/15 06:46:43;;;;;;;20.63;9.23;;;;;;;-8.71;82.68;98625.09;3506985;28;20497;-47
2021/01/15 06:48:26;;;;;;;20.52;9.02;;;;;;;-8.76;82.07;98637.34;3507173;28;20102;-48
2021/01/15 06:50:14;;;;;;;18.75;9.05;;;;;;;-8.77;81.76;98637.22;3507205;28;20055;-48
2021/01/15 06:51:57;;;;;;;19.92;8.55;;;;;;;-8.81;81.85;98631.13;3506802;28;20544;-48
2021/01/15 06:53:41;;;;;;;23.77;8.85;;;;;;;-8.82;81.96;98646.94;3501927;28;20406;-49
2021/01/15 06:55:32;;;;;;;;;;;;;;;-8.85;82.12;98641.69;3501865;28;20091;-51
2021/01/15 06:57:15;;;;;;;23.48;10.45;;;;;;;-8.79;82.79;98648.81;3502609;28;19924;-49
2021/01/15 06:59:11;;;;;;;27.55;10.52;;;;;;;-8.77;82.45;98647.28;3500714;28;20067;-50
2021/01/15 07:01:19;;;;;;;23.17;7.93;;;;;;;-8.79;81.23;98642.16;3501813;28;20109;-50
2021/01/15 07:03:36;;;;;;;21.88;8.50;;;;;;;-8.78;81.56;98648.91;3499506;28;20052;-48
2021/01/15 07:05:26;;;;;;;26.75;8.57;;;;;;;-8.78;80.89;98653.94;3502456;28;20475;-48
2021/01/15 07:07:15;;;;;;;17.33;6.45;;;;;;;-8.81;79.98;98651.22;3504174;28;20071;-47
2021/01/15 07:08:58;;;;;;;14.35;6.70;;;;;;;-8.82;79.98;98656.13;3508952;28;20059;-50
2021/01/15 07:10:40;;;;;;;22.80;9.88;;;;;;;-8.84;80.20;98655.16;3497646;28;20059;-48
2021/01/15 07:12:23;;;;;;;29.83;10.60;;;;;;;-8.84;79.89;98652.63;3504952;28;20516;-52
2021/01/15 07:14:05;;;;;;;22.17;10.25;;;;;;;-8.86;79.42;98660.06;3503858;28;20390;-47
2021/01/15 07:15:54;;;;;;;23.63;9.75;;;;;;;-8.88;79.13;98666.63;3505076;28;20103;-51
2021/01/15 07:17:37;;;;;;;22.40;9.48;;;;;;;-8.94;78.52;98661.13;3504186;28;20044;-49
2021/01/15 07:19:31;;;;;;;15.63;7.57;;;;;;;-8.98;78.53;98661.69;3503915;28;20048;-49
2021/01/15 07:21:17;;;;;;;23.52;10.18;;;;;;;-9.02;78.58;98672.25;3505623;28;20056;-48
2021/01/15 07:23:00;;;;;;;24.05;9.65;;;;;;;-9.01;79.66;98679.03;3504944;28;20520;-48
2021/01/15 07:24:42;;;;;;;22.35;8.95;;;;;;;-8.93;80.84;98678.81;3504448;28;20055;-47
2021/01/15 07:26:24;;;;;;;23.88;9.82;;;;;;;-8.82;80.54;98686.28;3504949;28;20048;-51
2021/01/15 07:28:07;;;;;;;23.58;9.88;;;;;;;-8.79;78.99;98682.34;3506190;28;20044;-51
2021/01/15 07:29:50;;;;;;;21.25;9.00;;;;;;;-8.74;78.40;98690.22;3501674;28;20106;-48
2021/01/15 07:31:32;;;;;;;20.13;9.18;;;;;;;-8.70;78.67;98696.34;3502748;28;20048;-49
2021/01/15 07:33:14;;;;;;;20.77;8.77;;;;;;;-8.67;77.82;98691.53;3510051;28;20044;-48
2021/01/15 07:34:59;;;;;;;23.00;10.30;;;;;;;-8.64;77.43;98697.66;3501094;28;20417;-47
2021/01/15 07:36:41;;;;;;;23.00;8.32;;;;;;;-8.56;78.51;98701.63;3508967;28;20462;-48
2021/01/15 07:38:22;;;;;;;24.08;9.52;;;;;;;-8.47;78.19;98708.94;3508010;28;20071;-48
2021/01/15 07:40:17;;;;;;;24.27;9.70;;;;;;;-8.44;76.75;98703.25;3505638;28;20048;-51
2021/01/15 07:41:59;;;;;;;19.75;9.18;;;;;;;-8.39;77.37;98699.44;3507711;28;20052;-48
2021/01/15 07:43:41;;;;;;;20.60;9.65;;;;;;;-8.35;77.12;98697.25;3505368;28;20579;-48
2021/01/15 07:45:51;;;;;;;24.33;9.63;;;;;;;-8.38;76.50;98696.16;3504344;28;20537;-48
2021/01/15 07:47:37;;;;;;;25.40;9.48;;;;;;;-8.34;76.43;98699.00;3501322;28;20048;-49
2021/01/15 07:49:19;;;;;;;24.27;11.60;;;;;;;-8.35;76.44;98702.28;3502708;28;20048;-48
2021/01/15 07:51:10;;;;;;;22.92;9.98;;;;;;;-8.30;77.52;98707.63;3503675;28;20048;-48
2021/01/15 07:53:04;;;;;;;36.35;13.43;;;;;;;-8.29;75.75;98711.03;3504760;28;20501;-49
2021/01/15 07:55:02;;;;;;;26.75;10.48;;;;;;;-8.33;75.77;98720.00;3499285;28;20052;-47
2021/01/15 07:56:43;;;;;;;24.30;9.52;;;;;;;-8.34;76.13;98709.06;3502004;28;20053;-52
2021/01/15 07:58:45;;;;;;;26.35;9.65;;;;;;;-8.28;77.20;98713.66;3509438;28;20142;-47
2021/01/15 08:00:26;;;;;;;20.98;8.82;;;;;;;-8.23;77.38;98722.41;3507720;28;20040;-50
2021/01/15 08:02:09;;;;;;;18.08;8.30;;;;;;;-8.25;75.27;98723.94;3509254;28;20051;-43
2021/01/15 08:03:54;;;;;;;24.37;10.10;;;;;;;-8.28;75.19;98733.78;3504630;28;20142;-43